Terminal Aerodrome Forecast
Issued by NWS

Current Version | Previous Version | Text Only | Print | Product List | Glossary Off
Versions: 1 2 3 4 5 6 7 8 9 10 11 12 13

202
FTUS41 KPBZ 051720
TAFMGW
TAF
KMGW 051720Z 0518/0618 27005KT P6SM SKC
     FM060000 20002KT P6SM SCT250=

USA.gov is the U.S. government's official web portal to all federal, state and local government web resources and services.